Time;durP1;ratioP1;P1;durP2;ratioP2;P2;SDS_P1;SDS_P2;PMS_P1;PMS_P2;Temp;Humidity;BMP_temperature;BMP_pressure;BME280_temperature;BME280_humidity;BME280_pressure;Samples;Min_cycle;Max_cycle;Signal;HPM_P1;HPM_P2
2023/08/29 00:00:35;;;;;;;25.27;15.47;;;;;;;;;;6106158;29;20056;-61
2023/08/29 00:03:58;;;;;;;25.40;16.40;;;;;;;;;;6110784;29;20537;-61
2023/08/29 00:06:58;;;;;;;27.85;16.75;;;;;;;;;;6105834;29;20051;-62
2023/08/29 00:09:59;;;;;;;23.77;15.50;;;;;;;;;;6103985;29;20079;-61
2023/08/29 00:12:59;;;;;;;23.60;15.93;;;;;;;;;;6108412;29;20047;-61
2023/08/29 00:16:00;;;;;;;23.70;15.37;;;;;;;;;;6111190;29;20054;-61
2023/08/29 00:19:01;;;;;;;21.47;13.83;;;;;;;;;;6105091;29;20033;-60
2023/08/29 00:22:02;;;;;;;24.02;14.52;;;;;;;;;;6101757;29;20050;-60
2023/08/29 00:25:03;;;;;;;19.40;14.10;;;;;;;;;;6103018;29;20535;-59
2023/08/29 00:28:03;;;;;;;15.70;11.77;;;;;;;;;;6100319;29;20151;-61
2023/08/29 00:31:04;;;;;;;17.53;12.13;;;;;;;;;;6098508;29;20413;-60
2023/08/29 00:34:04;;;;;;;16.87;12.30;;;;;;;;;;6099861;29;20175;-62
2023/08/29 00:37:05;;;;;;;17.60;12.67;;;;;;;;;;6100478;29;20060;-60
2023/08/29 00:40:07;;;;;;;18.67;12.33;;;;;;;;;;6098036;29;20417;-60
2023/08/29 00:43:07;;;;;;;18.35;12.90;;;;;;;;;;6099669;29;20083;-61
2023/08/29 00:46:08;;;;;;;17.93;12.33;;;;;;;;;;6100982;29;20047;-62
2023/08/29 00:49:10;;;;;;;19.33;12.68;;;;;;;;;;6096842;29;20052;-61
2023/08/29 00:52:10;;;;;;;20.15;12.60;;;;;;;;;;6093379;29;20977;-59
2023/08/29 00:55:11;;;;;;;18.03;11.83;;;;;;;;;;6099817;29;20054;-61
2023/08/29 00:58:12;;;;;;;18.00;11.93;;;;;;;;;;6101937;29;20049;-61
2023/08/29 01:01:14;;;;;;;18.67;11.73;;;;;;;;;;6100162;29;20047;-62
2023/08/29 01:04:15;;;;;;;17.38;11.73;;;;;;;;;;6082341;29;20072;-62
2023/08/29 01:07:16;;;;;;;19.60;12.63;;;;;;;;;;6106404;29;20048;-61
2023/08/29 01:10:18;;;;;;;18.47;12.73;;;;;;;;;;6104065;29;20067;-63
2023/08/29 01:13:29;;;;;;;17.95;12.38;;;;;;;;;;6105017;29;20071;-61
2023/08/29 01:16:35;;;;;;;16.30;10.98;;;;;;;;;;6096661;29;20044;-62
2023/08/29 01:19:40;;;;;;;16.63;11.50;;;;;;;;;;6102904;29;20052;-60
2023/08/29 01:22:51;;;;;;;15.68;10.50;;;;;;;;;;6100122;29;20078;-61
2023/08/29 01:26:05;;;;;;;15.23;9.70;;;;;;;;;;6102273;29;20419;-59
2023/08/29 01:29:06;;;;;;;12.38;8.90;;;;;;;;;;6083164;29;20640;-61
2023/08/29 01:32:07;;;;;;;14.17;9.90;;;;;;;;;;6100105;29;20044;-62
2023/08/29 01:35:10;;;;;;;14.33;9.63;;;;;;;;;;6097519;29;20095;-60
2023/08/29 01:38:10;;;;;;;14.60;9.65;;;;;;;;;;6101712;29;20044;-60
2023/08/29 01:41:11;;;;;;;13.15;8.95;;;;;;;;;;6100346;29;20461;-61
2023/08/29 01:44:11;;;;;;;10.07;7.53;;;;;;;;;;6100520;29;20052;-61
2023/08/29 01:47:12;;;;;;;11.95;7.90;;;;;;;;;;6102566;29;20167;-60
2023/08/29 01:50:14;;;;;;;10.07;7.40;;;;;;;;;;6099288;29;20048;-60
2023/08/29 01:53:14;;;;;;;9.00;7.35;;;;;;;;;;6097550;29;20817;-58
2023/08/29 01:56:15;;;;;;;10.60;7.33;;;;;;;;;;6100882;29;20059;-59
2023/08/29 01:59:16;;;;;;;9.50;7.47;;;;;;;;;;6102050;29;20044;-60
2023/08/29 02:02:18;;;;;;;12.07;8.87;;;;;;;;;;6101487;29;20044;-61
2023/08/29 02:05:18;;;;;;;14.80;10.55;;;;;;;;;;6099461;29;20052;-59
2023/08/29 02:08:19;;;;;;;17.27;11.32;;;;;;;;;;6099922;29;20413;-60
2023/08/29 02:11:20;;;;;;;22.00;12.63;;;;;;;;;;6099671;29;20116;-59
2023/08/29 02:14:20;;;;;;;18.45;11.85;;;;;;;;;;6099187;29;20075;-60
2023/08/29 02:17:21;;;;;;;25.17;13.43;;;;;;;;;;6100291;29;20056;-59
2023/08/29 02:20:21;;;;;;;26.50;14.75;;;;;;;;;;6100362;29;20055;-59
2023/08/29 02:23:23;;;;;;;28.15;15.48;;;;;;;;;;6097988;29;20508;-59
2023/08/29 02:26:23;;;;;;;30.15;17.13;;;;;;;;;;6102100;29;20063;-61
2023/08/29 02:29:24;;;;;;;31.25;16.88;;;;;;;;;;6097025;29;20071;-60
2023/08/29 02:32:24;;;;;;;33.27;17.63;;;;;;;;;;6097849;29;20052;-60
2023/08/29 02:35:25;;;;;;;31.23;17.33;;;;;;;;;;6096948;29;20040;-59
2023/08/29 02:38:26;;;;;;;33.00;17.10;;;;;;;;;;6097706;29;20046;-59
2023/08/29 02:41:26;;;;;;;31.80;17.00;;;;;;;;;;6097411;29;20085;-60
2023/08/29 02:44:27;;;;;;;32.93;18.03;;;;;;;;;;6100704;29;20056;-60
2023/08/29 02:47:28;;;;;;;31.20;17.77;;;;;;;;;;6104493;29;20039;-60
2023/08/29 02:50:28;;;;;;;30.13;16.60;;;;;;;;;;6103365;29;20052;-60
2023/08/29 02:53:29;;;;;;;31.83;17.30;;;;;;;;;;6112075;29;20107;-60
2023/08/29 02:56:30;;;;;;;29.60;16.50;;;;;;;;;;6120988;29;20055;-61
2023/08/29 02:59:30;;;;;;;29.40;16.47;;;;;;;;;;6102183;29;20040;-60
2023/08/29 03:02:31;;;;;;;34.63;17.33;;;;;;;;;;6104264;29;20040;-61
2023/08/29 03:05:32;;;;;;;31.37;16.97;;;;;;;;;;6103384;29;20090;-60
2023/08/29 03:08:33;;;;;;;34.97;17.10;;;;;;;;;;6101564;29;20051;-62
2023/08/29 03:11:33;;;;;;;30.77;16.58;;;;;;;;;;6101290;29;20055;-59
2023/08/29 03:14:34;;;;;;;28.83;17.57;;;;;;;;;;6100863;29;20419;-61
2023/08/29 03:17:35;;;;;;;32.63;17.17;;;;;;;;;;6101137;29;20040;-60
2023/08/29 03:20:39;;;;;;;31.77;16.17;;;;;;;;;;6101840;29;20051;-60
2023/08/29 03:23:40;;;;;;;27.95;16.55;;;;;;;;;;6101179;29;20047;-60
2023/08/29 03:26:40;;;;;;;29.53;16.20;;;;;;;;;;6102842;29;20095;-61
2023/08/29 03:29:41;;;;;;;32.13;16.60;;;;;;;;;;6100841;29;20071;-60
2023/08/29 03:32:41;;;;;;;27.97;14.93;;;;;;;;;;6100276;29;20104;-56
2023/08/29 03:35:42;;;;;;;25.80;13.77;;;;;;;;;;6100737;29;20086;-61
2023/08/29 03:38:43;;;;;;;26.47;14.03;;;;;;;;;;6099747;29;20119;-60
2023/08/29 03:41:44;;;;;;;26.00;14.18;;;;;;;;;;6098911;29;20442;-61
2023/08/29 03:44:44;;;;;;;27.10;13.03;;;;;;;;;;6101577;29;20059;-61
2023/08/29 03:47:45;;;;;;;24.27;13.68;;;;;;;;;;6104376;29;20146;-59
2023/08/29 03:50:45;;;;;;;27.33;13.27;;;;;;;;;;6105241;29;20047;-60
2023/08/29 03:53:46;;;;;;;23.90;12.27;;;;;;;;;;6098108;29;20539;-59
2023/08/29 03:56:48;;;;;;;25.70;12.75;;;;;;;;;;6102876;29;20048;-60
2023/08/29 03:59:48;;;;;;;24.30;12.52;;;;;;;;;;6106213;29;20514;-61
2023/08/29 04:02:49;;;;;;;23.53;12.20;;;;;;;;;;6103734;29;20044;-60
2023/08/29 04:05:50;;;;;;;23.93;11.93;;;;;;;;;;6100362;29;20047;-60
2023/08/29 04:08:50;;;;;;;20.80;11.90;;;;;;;;;;6101534;29;20844;-60
2023/08/29 04:11:51;;;;;;;20.70;11.30;;;;;;;;;;6099850;29;20043;-61
2023/08/29 04:14:51;;;;;;;20.67;11.80;;;;;;;;;;6098512;29;20480;-61
2023/08/29 04:17:52;;;;;;;19.03;11.00;;;;;;;;;;6100447;29;20456;-61
2023/08/29 04:20:52;;;;;;;17.80;10.40;;;;;;;;;;6100963;29;20051;-62
2023/08/29 04:23:53;;;;;;;20.30;10.93;;;;;;;;;;6100562;29;20063;-61
2023/08/29 04:26:53;;;;;;;18.10;10.02;;;;;;;;;;6099780;29;20052;-62
2023/08/29 04:29:54;;;;;;;16.63;10.50;;;;;;;;;;6097603;29;20488;-61
2023/08/29 04:32:56;;;;;;;18.07;10.23;;;;;;;;;;6097504;29;20036;-61
2023/08/29 04:35:58;;;;;;;20.45;11.40;;;;;;;;;;6098436;29;20054;-61
2023/08/29 04:38:59;;;;;;;;;;;;;;;;;;6099897;29;20126;-62
2023/08/29 04:42:00;;;;;;;19.00;9.95;;;;;;;;;;6080941;29;20357;-61
2023/08/29 04:45:04;;;;;;;20.57;10.43;;;;;;;;;;6097634;29;20423;-61
2023/08/29 04:48:05;;;;;;;19.08;11.23;;;;;;;;;;6099235;29;20527;-62
2023/08/29 04:51:05;;;;;;;20.10;10.83;;;;;;;;;;6100516;29;20167;-62
2023/08/29 04:54:07;;;;;;;20.03;10.97;;;;;;;;;;6100447;29;20052;-63
2023/08/29 04:57:07;;;;;;;21.70;11.43;;;;;;;;;;6100004;29;20043;-60
2023/08/29 05:00:09;;;;;;;19.53;10.70;;;;;;;;;;6099858;29;20103;-62
2023/08/29 05:03:10;;;;;;;;;;;;;;;;;;6111008;29;21705;-61
2023/08/29 05:06:11;;;;;;;19.83;11.15;;;;;;;;;;6099643;29;19934;-62
2023/08/29 05:09:11;;;;;;;24.33;12.70;;;;;;;;;;6099512;29;20106;-62
2023/08/29 05:12:12;;;;;;;24.65;12.57;;;;;;;;;;6098645;29;20079;-62
2023/08/29 05:15:12;;;;;;;22.33;12.57;;;;;;;;;;6096992;29;20056;-62
2023/08/29 05:18:13;;;;;;;24.17;12.90;;;;;;;;;;6098603;29;20036;-62
2023/08/29 05:21:14;;;;;;;27.53;12.80;;;;;;;;;;6083509;29;20058;-62
2023/08/29 05:24:14;;;;;;;23.60;12.37;;;;;;;;;;6100884;29;20139;-61
2023/08/29 05:27:15;;;;;;;25.63;12.87;;;;;;;;;;6099324;29;22151;-62
2023/08/29 05:30:16;;;;;;;25.20;12.53;;;;;;;;;;6097448;29;20455;-62
2023/08/29 05:33:16;;;;;;;27.97;12.50;;;;;;;;;;6097654;29;20511;-61
2023/08/29 05:36:17;;;;;;;29.47;12.90;;;;;;;;;;6099453;29;20426;-61
2023/08/29 05:39:17;;;;;;;24.40;11.97;;;;;;;;;;6097262;29;20060;-62
2023/08/29 05:42:18;;;;;;;24.10;12.68;;;;;;;;;;6097103;29;20059;-62
2023/08/29 05:45:19;;;;;;;24.50;11.80;;;;;;;;;;6100276;29;20055;-61
2023/08/29 05:48:19;;;;;;;20.20;11.27;;;;;;;;;;6098788;29;20131;-61
2023/08/29 05:51:20;;;;;;;23.70;11.13;;;;;;;;;;6100630;29;20063;-60
2023/08/29 05:54:21;;;;;;;28.13;12.90;;;;;;;;;;6100165;29;20051;-61
2023/08/29 05:57:21;;;;;;;21.60;11.70;;;;;;;;;;6098654;29;20155;-61
2023/08/29 06:00:22;;;;;;;23.20;12.27;;;;;;;;;;6099067;29;20083;-59
2023/08/29 06:03:23;;;;;;;24.27;12.23;;;;;;;;;;6098989;29;20494;-61
2023/08/29 06:06:23;;;;;;;22.87;11.87;;;;;;;;;;6099795;29;20052;-61
2023/08/29 06:09:24;;;;;;;21.77;11.47;;;;;;;;;;6099757;29;20058;-61
2023/08/29 06:12:25;;;;;;;25.23;12.23;;;;;;;;;;6099403;29;20496;-61
2023/08/29 06:15:26;;;;;;;24.35;11.48;;;;;;;;;;6101222;29;20040;-61
2023/08/29 06:18:27;;;;;;;26.92;13.15;;;;;;;;;;6104310;29;20050;-61
2023/08/29 06:21:28;;;;;;;27.73;12.37;;;;;;;;;;6110520;29;20490;-61
2023/08/29 06:24:28;;;;;;;26.17;12.23;;;;;;;;;;6109333;29;20554;-62
2023/08/29 06:27:29;;;;;;;22.53;12.30;;;;;;;;;;6112568;29;20070;-61
2023/08/29 06:30:30;;;;;;;27.63;13.03;;;;;;;;;;6111984;29;21475;-61
2023/08/29 06:33:31;;;;;;;23.97;12.73;;;;;;;;;;6112335;29;20126;-62
2023/08/29 06:36:32;;;;;;;22.38;12.93;;;;;;;;;;6111103;29;20058;-61
2023/08/29 06:39:32;;;;;;;27.90;13.97;;;;;;;;;;6115736;29;20400;-61
2023/08/29 06:42:33;;;;;;;24.57;13.63;;;;;;;;;;6112062;29;20067;-62
2023/08/29 06:45:34;;;;;;;26.33;13.30;;;;;;;;;;6112370;29;20052;-61
2023/08/29 06:48:35;;;;;;;26.73;13.20;;;;;;;;;;6111276;29;20079;-61
2023/08/29 06:51:35;;;;;;;27.10;14.03;;;;;;;;;;6111286;29;20055;-61
2023/08/29 06:54:36;;;;;;;25.33;14.02;;;;;;;;;;6110647;29;20446;-62
2023/08/29 06:57:37;;;;;;;25.02;15.15;;;;;;;;;;6111558;29;20055;-60
2023/08/29 07:00:37;;;;;;;24.87;13.77;;;;;;;;;;6110762;29;20673;-61
2023/08/29 07:03:38;;;;;;;21.20;13.10;;;;;;;;;;6118730;29;20491;-61
2023/08/29 07:06:39;;;;;;;28.30;13.90;;;;;;;;;;6106618;29;20132;-60
2023/08/29 07:09:39;;;;;;;20.92;12.73;;;;;;;;;;6102547;29;20107;-61
2023/08/29 07:12:40;;;;;;;23.03;12.07;;;;;;;;;;6104407;29;20624;-61
2023/08/29 07:15:41;;;;;;;18.65;11.30;;;;;;;;;;6102625;29;20048;-61
2023/08/29 07:18:42;;;;;;;18.08;11.25;;;;;;;;;;6098534;29;20079;-61
2023/08/29 07:21:42;;;;;;;16.53;10.60;;;;;;;;;;6101063;29;20404;-61
2023/08/29 07:24:43;;;;;;;18.07;10.70;;;;;;;;;;6100910;29;20048;-62
2023/08/29 07:27:44;;;;;;;22.10;13.83;;;;;;;;;;6097732;29;20055;-60
2023/08/29 07:30:47;;;;;;;26.43;15.87;;;;;;;;;;6101198;29;20087;-61
2023/08/29 07:33:48;;;;;;;26.30;15.93;;;;;;;;;;6096038;29;20075;-61
2023/08/29 07:36:49;;;;;;;25.90;15.25;;;;;;;;;;6099105;29;20431;-61
2023/08/29 07:39:49;;;;;;;25.70;14.97;;;;;;;;;;6100008;29;20111;-61
2023/08/29 07:42:50;;;;;;;25.60;15.57;;;;;;;;;;6100125;29;20060;-61
2023/08/29 07:45:52;;;;;;;31.97;17.63;;;;;;;;;;6100032;29;20051;-61
2023/08/29 07:48:53;;;;;;;29.80;16.45;;;;;;;;;;6101841;29;20043;-61
2023/08/29 07:51:55;;;;;;;25.23;14.60;;;;;;;;;;6100071;29;20036;-61
2023/08/29 07:54:58;;;;;;;17.30;10.30;;;;;;;;;;6110952;29;20074;-61
2023/08/29 07:58:00;;;;;;;17.20;10.57;;;;;;;;;;6099641;29;20491;-61
2023/08/29 08:01:02;;;;;;;16.80;9.93;;;;;;;;;;6101452;29;20840;-61
2023/08/29 08:04:05;;;;;;;14.07;8.57;;;;;;;;;;6101898;29;20044;-62
2023/08/29 08:07:06;;;;;;;12.98;7.95;;;;;;;;;;6098755;29;20131;-62
2023/08/29 08:10:08;;;;;;;9.93;6.77;;;;;;;;;;6101144;29;20067;-61
2023/08/29 08:13:08;;;;;;;10.15;7.47;;;;;;;;;;6096462;29;20055;-62
2023/08/29 08:16:09;;;;;;;11.10;7.60;;;;;;;;;;6101244;29;20423;-60
2023/08/29 08:19:10;;;;;;;9.43;6.70;;;;;;;;;;6097555;29;20071;-61
2023/08/29 08:22:10;;;;;;;11.27;7.17;;;;;;;;;;6101481;29;20054;-61
2023/08/29 08:25:11;;;;;;;12.00;7.57;;;;;;;;;;6101140;29;20052;-61
2023/08/29 08:28:13;;;;;;;13.50;7.47;;;;;;;;;;6100872;29;20052;-61
2023/08/29 08:31:14;;;;;;;10.93;7.03;;;;;;;;;;6099264;29;20044;-61
2023/08/29 08:34:14;;;;;;;9.83;7.20;;;;;;;;;;6098407;29;20551;-61
2023/08/29 08:37:15;;;;;;;10.07;6.97;;;;;;;;;;6096610;29;20048;-61
2023/08/29 08:40:15;;;;;;;10.17;7.20;;;;;;;;;;6099157;29;20043;-62
2023/08/29 08:43:17;;;;;;;10.20;7.17;;;;;;;;;;6099222;29;20076;-61
2023/08/29 08:46:18;;;;;;;9.55;6.40;;;;;;;;;;6099358;29;20039;-59
2023/08/29 08:49:19;;;;;;;8.87;6.30;;;;;;;;;;6099543;29;20047;-61
2023/08/29 08:52:19;;;;;;;9.13;6.20;;;;;;;;;;6097674;29;20079;-61
2023/08/29 08:55:20;;;;;;;9.10;6.63;;;;;;;;;;6100599;29;20059;-61
2023/08/29 08:58:20;;;;;;;9.30;6.77;;;;;;;;;;6099530;29;20062;-60
2023/08/29 09:01:21;;;;;;;9.03;6.73;;;;;;;;;;6098816;29;20047;-62
2023/08/29 09:04:25;;;;;;;8.70;6.80;;;;;;;;;;6097839;29;20047;-62
2023/08/29 09:07:25;;;;;;;9.45;7.30;;;;;;;;;;6098474;29;20588;-61
2023/08/29 09:10:32;;;;;;;10.63;6.90;;;;;;;;;;6098830;29;20055;-61
2023/08/29 09:13:32;;;;;;;9.32;7.22;;;;;;;;;;6097545;29;20062;-62
2023/08/29 09:16:35;;;;;;;8.67;6.77;;;;;;;;;;6098565;29;20036;-61
2023/08/29 09:19:36;;;;;;;9.30;6.93;;;;;;;;;;6099525;29;20063;-61
2023/08/29 09:22:40;;;;;;;8.20;6.50;;;;;;;;;;6100317;29;21318;-61
2023/08/29 09:25:41;;;;;;;11.30;7.55;;;;;;;;;;6100007;29;20130;-61
2023/08/29 09:28:42;;;;;;;9.00;6.93;;;;;;;;;;6099408;29;20392;-61
2023/08/29 09:31:44;;;;;;;9.63;7.13;;;;;;;;;;6099626;29;20135;-62
2023/08/29 09:34:44;;;;;;;11.93;7.32;;;;;;;;;;6099963;29;20048;-60
2023/08/29 09:37:51;;;;;;;12.87;8.10;;;;;;;;;;6099602;29;20129;-61
2023/08/29 09:40:55;;;;;;;11.45;7.55;;;;;;;;;;6100691;29;20048;-60
2023/08/29 09:43:56;;;;;;;11.23;8.23;;;;;;;;;;6099189;29;20048;-62
2023/08/29 09:46:56;;;;;;;10.27;7.93;;;;;;;;;;6100565;29;20059;-61
2023/08/29 09:49:57;;;;;;;11.77;8.37;;;;;;;;;;6097972;29;20048;-61
2023/08/29 09:52:59;;;;;;;12.13;8.43;;;;;;;;;;6085953;29;20059;-61
2023/08/29 09:56:09;;;;;;;10.63;7.55;;;;;;;;;;6101862;29;20499;-60
2023/08/29 09:59:15;;;;;;;12.27;8.30;;;;;;;;;;6104548;29;20051;-61
2023/08/29 10:02:18;;;;;;;11.38;8.68;;;;;;;;;;6103492;29;20449;-59
2023/08/29 10:05:22;;;;;;;13.20;8.38;;;;;;;;;;6102387;29;20786;-61
2023/08/29 10:08:29;;;;;;;11.18;8.15;;;;;;;;;;6103368;29;20044;-60
2023/08/29 10:11:31;;;;;;;12.75;8.73;;;;;;;;;;6104900;29;20050;-61
2023/08/29 10:14:32;;;;;;;;;;;;;;;;;;6105231;29;20077;-62
2023/08/29 10:17:35;;;;;;;12.90;8.45;;;;;;;;;;6101988;29;19923;-61
2023/08/29 10:20:37;;;;;;;12.52;8.10;;;;;;;;;;6100271;29;20370;-60
2023/08/29 10:23:38;;;;;;;;;;;;;;;;;;6103668;29;20055;-61
2023/08/29 10:26:39;;;;;;;12.27;8.33;;;;;;;;;;6100912;29;19945;-61
2023/08/29 10:29:40;;;;;;;10.65;8.27;;;;;;;;;;6104991;29;20044;-60
2023/08/29 10:32:43;;;;;;;13.27;8.00;;;;;;;;;;6102866;29;20530;-60
2023/08/29 10:35:47;;;;;;;10.80;8.20;;;;;;;;;;6102900;29;20059;-60
2023/08/29 10:38:49;;;;;;;14.10;8.63;;;;;;;;;;6099662;29;20517;-58
2023/08/29 10:41:53;;;;;;;11.43;7.60;;;;;;;;;;6103518;29;20825;-61
2023/08/29 10:44:55;;;;;;;10.57;7.68;;;;;;;;;;6103347;29;20049;-61
2023/08/29 10:47:55;;;;;;;10.93;7.78;;;;;;;;;;6101771;29;21234;-60
2023/08/29 10:51:18;;;;;;;10.93;7.17;;;;;;;;;;6102784;29;20040;-61
2023/08/29 10:54:29;;;;;;;12.85;7.75;;;;;;;;;;6100672;29;20048;-62
2023/08/29 10:57:30;;;;;;;10.40;7.93;;;;;;;;;;6102739;29;20059;-61
2023/08/29 11:00:41;;;;;;;10.82;7.70;;;;;;;;;;6102248;29;20048;-61
2023/08/29 11:03:50;;;;;;;12.52;8.35;;;;;;;;;;6102805;29;20048;-60
2023/08/29 11:06:55;;;;;;;11.20;8.15;;;;;;;;;;6103585;29;20135;-61
2023/08/29 11:10:15;;;;;;;11.05;7.10;;;;;;;;;;6108346;29;20414;-60
2023/08/29 11:13:15;;;;;;;11.27;7.55;;;;;;;;;;6106221;29;20060;-60
2023/08/29 11:16:16;;;;;;;10.83;7.40;;;;;;;;;;6103557;29;20500;-61
2023/08/29 11:19:18;;;;;;;13.77;8.17;;;;;;;;;;6100846;29;20118;-60
2023/08/29 11:22:22;;;;;;;12.88;7.75;;;;;;;;;;6102641;29;20055;-60
2023/08/29 11:25:23;;;;;;;11.02;8.00;;;;;;;;;;6110819;29;20051;-59
2023/08/29 11:28:23;;;;;;;11.20;7.73;;;;;;;;;;6105326;29;20676;-60
2023/08/29 11:31:24;;;;;;;11.97;7.80;;;;;;;;;;6104670;29;20039;-61
2023/08/29 11:34:25;;;;;;;14.57;7.90;;;;;;;;;;6100413;29;20496;-60
2023/08/29 11:37:29;;;;;;;10.73;7.63;;;;;;;;;;6099589;29;20055;-59
2023/08/29 11:40:30;;;;;;;11.20;8.52;;;;;;;;;;6101902;29;20123;-60
2023/08/29 11:43:34;;;;;;;10.50;7.00;;;;;;;;;;6097932;29;20942;-60
2023/08/29 11:46:35;;;;;;;13.45;8.45;;;;;;;;;;6098579;29;20321;-60
2023/08/29 11:49:40;;;;;;;12.50;8.80;;;;;;;;;;6103465;29;20047;-61
2023/08/29 11:52:41;;;;;;;11.52;7.78;;;;;;;;;;6110508;29;20053;-61
2023/08/29 11:55:42;;;;;;;13.43;8.67;;;;;;;;;;6111351;29;20040;-60
2023/08/29 11:58:43;;;;;;;16.13;10.80;;;;;;;;;;6109338;29;20050;-60
2023/08/29 12:01:43;;;;;;;21.13;13.90;;;;;;;;;;6109635;29;20071;-61
2023/08/29 12:04:45;;;;;;;23.80;15.73;;;;;;;;;;6110810;29;20047;-61
2023/08/29 12:07:51;;;;;;;26.63;17.45;;;;;;;;;;6111638;29;20060;-61
2023/08/29 12:10:55;;;;;;;28.50;17.38;;;;;;;;;;6110877;29;20503;-58
2023/08/29 12:14:00;;;;;;;32.97;19.73;;;;;;;;;;6110518;29;20051;-59
2023/08/29 12:17:01;;;;;;;30.55;19.35;;;;;;;;;;6107985;29;20047;-60
2023/08/29 12:20:01;;;;;;;29.67;18.90;;;;;;;;;;6107780;29;20150;-62
2023/08/29 12:23:03;;;;;;;29.95;18.45;;;;;;;;;;6110923;29;20555;-61
2023/08/29 12:26:05;;;;;;;31.33;18.27;;;;;;;;;;6109389;29;20056;-57
2023/08/29 12:29:05;;;;;;;31.60;18.52;;;;;;;;;;6108025;29;20059;-61
2023/08/29 12:32:06;;;;;;;29.27;18.93;;;;;;;;;;6110804;29;20055;-61
2023/08/29 12:35:07;;;;;;;26.40;17.57;;;;;;;;;;6111812;29;20042;-59
2023/08/29 12:38:07;;;;;;;25.97;17.83;;;;;;;;;;6107244;29;20047;-58
2023/08/29 12:41:09;;;;;;;28.70;17.60;;;;;;;;;;6108534;29;20051;-60
2023/08/29 12:44:09;;;;;;;29.08;18.23;;;;;;;;;;6108036;29;20534;-60
2023/08/29 12:47:10;;;;;;;25.80;16.73;;;;;;;;;;6109112;29;20134;-59
2023/08/29 12:50:10;;;;;;;25.97;17.50;;;;;;;;;;6107602;29;20055;-60
2023/08/29 12:53:11;;;;;;;31.40;19.07;;;;;;;;;;6107711;29;20558;-58
2023/08/29 12:56:12;;;;;;;28.90;18.13;;;;;;;;;;6107818;29;20143;-60
2023/08/29 12:59:13;;;;;;;26.57;17.23;;;;;;;;;;6106743;29;20048;-57
2023/08/29 13:02:14;;;;;;;26.90;17.17;;;;;;;;;;6106732;29;20040;-61
2023/08/29 13:05:15;;;;;;;26.95;17.10;;;;;;;;;;6110250;29;20047;-60
2023/08/29 13:08:17;;;;;;;27.23;17.40;;;;;;;;;;6107033;29;20054;-59
2023/08/29 13:11:18;;;;;;;29.67;17.77;;;;;;;;;;6105854;29;20174;-59
2023/08/29 13:14:18;;;;;;;29.40;16.97;;;;;;;;;;6106373;29;20055;-60
2023/08/29 13:17:19;;;;;;;26.57;16.43;;;;;;;;;;6109954;29;20474;-60
2023/08/29 13:20:20;;;;;;;27.50;17.43;;;;;;;;;;6107540;29;20071;-61
2023/08/29 13:23:20;;;;;;;30.03;19.47;;;;;;;;;;6106102;29;20491;-61
2023/08/29 13:26:22;;;;;;;31.00;20.00;;;;;;;;;;6110144;28;20051;-60
2023/08/29 13:29:23;;;;;;;30.98;19.48;;;;;;;;;;6111779;29;20060;-58
2023/08/29 13:32:24;;;;;;;39.80;20.97;;;;;;;;;;6106821;29;20047;-59
2023/08/29 13:35:24;;;;;;;30.60;19.17;;;;;;;;;;6109363;29;20538;-60
2023/08/29 13:38:26;;;;;;;36.43;21.20;;;;;;;;;;6107472;29;20464;-62
2023/08/29 13:41:26;;;;;;;41.05;24.20;;;;;;;;;;6107053;29;20072;-58
2023/08/29 13:44:27;;;;;;;42.57;24.33;;;;;;;;;;6109210;29;20145;-60
2023/08/29 13:47:28;;;;;;;47.30;27.13;;;;;;;;;;6110449;29;20054;-60
2023/08/29 13:50:28;;;;;;;44.90;26.53;;;;;;;;;;6104315;29;20063;-61
2023/08/29 13:53:29;;;;;;;49.47;26.57;;;;;;;;;;6106449;29;20047;-61
2023/08/29 13:56:29;;;;;;;49.00;27.07;;;;;;;;;;6102587;29;20631;-61
2023/08/29 13:59:31;;;;;;;53.60;26.73;;;;;;;;;;6100909;29;20495;-61
2023/08/29 14:02:31;;;;;;;52.42;29.63;;;;;;;;;;6105556;29;20107;-59
2023/08/29 14:05:34;;;;;;;65.53;32.53;;;;;;;;;;6108975;29;20852;-60
2023/08/29 14:08:34;;;;;;;66.15;32.25;;;;;;;;;;6101746;29;20059;-60
2023/08/29 14:11:35;;;;;;;73.03;33.80;;;;;;;;;;6108375;29;20576;-61
2023/08/29 14:14:35;;;;;;;62.83;32.10;;;;;;;;;;6106481;29;20048;-60
2023/08/29 14:17:36;;;;;;;70.50;33.77;;;;;;;;;;6104788;29;20105;-61
2023/08/29 14:20:44;;;;;;;61.43;31.90;;;;;;;;;;6104772;29;20055;-60
2023/08/29 14:23:44;;;;;;;53.45;28.45;;;;;;;;;;6107131;29;20047;-60
2023/08/29 14:26:45;;;;;;;49.80;27.07;;;;;;;;;;6106779;29;20054;-58
2023/08/29 14:29:46;;;;;;;44.90;25.85;;;;;;;;;;6104318;29;20055;-57
2023/08/29 14:32:47;;;;;;;50.83;27.33;;;;;;;;;;6106440;29;20073;-60
2023/08/29 14:35:54;;;;;;;48.97;26.93;;;;;;;;;;6121040;29;20047;-59
2023/08/29 14:38:54;;;;;;;52.40;28.33;;;;;;;;;;6123847;29;20086;-59
2023/08/29 14:41:55;;;;;;;56.07;30.00;;;;;;;;;;6127300;29;20055;-60
2023/08/29 14:44:56;;;;;;;56.23;29.40;;;;;;;;;;6098111;29;20981;-60
2023/08/29 14:47:57;;;;;;;57.80;30.92;;;;;;;;;;6101292;29;20774;-59
2023/08/29 14:50:58;;;;;;;65.13;34.83;;;;;;;;;;6094107;29;20056;-59
2023/08/29 14:54:03;;;;;;;57.38;30.48;;;;;;;;;;6060418;29;20044;-60
2023/08/29 14:57:04;;;;;;;67.47;35.55;;;;;;;;;;6100744;29;20042;-59
2023/08/29 15:00:05;;;;;;;64.63;34.45;;;;;;;;;;6094966;29;20051;-60
2023/08/29 15:03:06;;;;;;;61.40;32.45;;;;;;;;;;6090880;29;20060;-59
2023/08/29 15:06:10;;;;;;;62.13;34.27;;;;;;;;;;6077493;29;20424;-58
2023/08/29 15:09:11;;;;;;;65.95;34.42;;;;;;;;;;6097080;29;20154;-59
2023/08/29 15:12:12;;;;;;;69.23;36.63;;;;;;;;;;6093985;29;20074;-58
2023/08/29 15:15:12;;;;;;;72.63;36.40;;;;;;;;;;6095545;29;20051;-60
2023/08/29 15:18:15;;;;;;;73.73;37.00;;;;;;;;;;6099571;29;20416;-60
2023/08/29 15:21:15;;;;;;;68.97;35.97;;;;;;;;;;6097548;29;20135;-59
2023/08/29 15:24:16;;;;;;;68.43;36.73;;;;;;;;;;6094852;29;20790;-60
2023/08/29 15:27:17;;;;;;;79.30;37.67;;;;;;;;;;6092482;29;20059;-59
2023/08/29 15:30:17;;;;;;;75.03;36.27;;;;;;;;;;6092355;29;20496;-60
2023/08/29 15:33:18;;;;;;;67.07;32.57;;;;;;;;;;6101714;29;20089;-59
2023/08/29 15:36:23;;;;;;;62.53;33.33;;;;;;;;;;6084953;29;20174;-59
2023/08/29 15:39:24;;;;;;;60.53;32.78;;;;;;;;;;6074680;29;20103;-59
2023/08/29 15:42:25;;;;;;;58.97;31.50;;;;;;;;;;6077416;29;20487;-60
2023/08/29 15:45:25;;;;;;;61.57;30.57;;;;;;;;;;6099241;29;20310;-60
2023/08/29 15:48:26;;;;;;;66.33;33.87;;;;;;;;;;6098077;29;20461;-59
2023/08/29 15:51:27;;;;;;;70.80;36.43;;;;;;;;;;6102530;29;20051;-59
2023/08/29 15:54:27;;;;;;;65.30;31.97;;;;;;;;;;6103576;29;20047;-59
2023/08/29 15:57:28;;;;;;;61.67;29.67;;;;;;;;;;6097443;29;20495;-59
2023/08/29 16:00:29;;;;;;;57.57;30.00;;;;;;;;;;6099252;29;20547;-59
2023/08/29 16:03:30;;;;;;;53.00;29.17;;;;;;;;;;6099924;29;20106;-59
2023/08/29 16:06:31;;;;;;;55.72;29.05;;;;;;;;;;6107388;29;20570;-60
2023/08/29 16:09:31;;;;;;;50.53;26.07;;;;;;;;;;6097766;29;20099;-59
2023/08/29 16:12:32;;;;;;;48.63;24.83;;;;;;;;;;6104350;29;20071;-59
2023/08/29 16:15:34;;;;;;;43.70;24.30;;;;;;;;;;6100827;29;20574;-59
2023/08/29 16:18:35;;;;;;;46.10;23.65;;;;;;;;;;6098606;29;20047;-58
2023/08/29 16:21:36;;;;;;;43.00;24.00;;;;;;;;;;6097301;29;20055;-59
2023/08/29 16:24:36;;;;;;;45.47;24.43;;;;;;;;;;6098836;29;20083;-58
2023/08/29 16:27:37;;;;;;;39.57;22.03;;;;;;;;;;6098425;29;20463;-60
2023/08/29 16:30:38;;;;;;;43.57;22.40;;;;;;;;;;6097758;29;20134;-59
2023/08/29 16:33:38;;;;;;;41.80;21.47;;;;;;;;;;6099504;29;20103;-60
2023/08/29 16:36:39;;;;;;;34.47;19.55;;;;;;;;;;6099992;29;20447;-59
2023/08/29 16:39:40;;;;;;;35.03;19.20;;;;;;;;;;6098141;29;20104;-57
2023/08/29 16:42:40;;;;;;;36.33;19.40;;;;;;;;;;6099318;29;20051;-58
2023/08/29 16:45:41;;;;;;;35.23;20.00;;;;;;;;;;6099474;29;20054;-59
2023/08/29 16:48:42;;;;;;;36.73;19.90;;;;;;;;;;6097306;29;20091;-60
2023/08/29 16:51:42;;;;;;;35.07;19.40;;;;;;;;;;6098361;29;20056;-60
2023/08/29 16:54:43;;;;;;;35.90;20.77;;;;;;;;;;6100112;29;20154;-59
2023/08/29 16:57:44;;;;;;;36.97;20.07;;;;;;;;;;6096315;29;20538;-59
2023/08/29 17:00:45;;;;;;;36.90;20.43;;;;;;;;;;6096477;29;20048;-59
2023/08/29 17:03:46;;;;;;;36.05;20.58;;;;;;;;;;6098424;29;20091;-59
2023/08/29 17:06:46;;;;;;;35.80;19.97;;;;;;;;;;6097097;29;20047;-59
2023/08/29 17:09:47;;;;;;;30.17;18.30;;;;;;;;;;6097661;29;20041;-59
2023/08/29 17:12:48;;;;;;;36.83;20.23;;;;;;;;;;6099828;29;20055;-58
2023/08/29 17:15:48;;;;;;;39.60;20.50;;;;;;;;;;6098943;29;20054;-59
2023/08/29 17:18:49;;;;;;;34.33;19.87;;;;;;;;;;6096396;29;20544;-59
2023/08/29 17:21:50;;;;;;;30.87;18.90;;;;;;;;;;6096826;29;20044;-57
2023/08/29 17:24:50;;;;;;;37.30;19.83;;;;;;;;;;6095232;29;20044;-60
2023/08/29 17:27:51;;;;;;;35.77;19.07;;;;;;;;;;6098697;29;20325;-61
2023/08/29 17:30:51;;;;;;;34.73;19.80;;;;;;;;;;6095857;29;20052;-60
2023/08/29 17:33:52;;;;;;;33.17;19.03;;;;;;;;;;6097391;29;20056;-61
2023/08/29 17:36:53;;;;;;;31.30;18.23;;;;;;;;;;6097539;29;20147;-60
2023/08/29 17:39:54;;;;;;;31.33;18.60;;;;;;;;;;6099385;29;20043;-60
2023/08/29 17:42:54;;;;;;;32.27;18.67;;;;;;;;;;6104620;29;20051;-59